Cottage Hills, Illinois
Current Conditions -  °F | °C
As of 2:50 PM on Monday 24 Nov 2014 (Local Time) from KALN Reporting Station
Overcast Overcast  
Wind Chill: 30°   Ceiling: 3600
Heat Index: 39°   Visibility: 10mi
Dew Point: 28°   Wind: 17mph
Humidity: 65%   Direction: 260°W
Pressure: 29.78"   Gusts: 26mph
Location:  38.9°N, 90.07°W
Report Text: KALN 242050Z 26015G23KT 10SM OVC036 04/M02 A2978
Loading
Personal Weather Stations






























Interactive Weather Map New forecast layout! Learn more

10-Day Weather Forecast

Advertisements
Track Severe Weather on mobile